Terminal Aerodrome Forecast
Issued by NWS

Current Version | Previous Version | Text Only | Print | Product List | Glossary Off
Versions: 1 2 3 4 5 6 7 8 9 10 11 12 13 14 15 16 17 18

000
FTUS41 KILN 291300 AAA
TAFLUK
TAF AMD
KLUK 291310Z 2913/3012 00000KT 1/4SM FG VV002
     FM291400 32005KT P6SM FEW050
     FM300000 VRB03KT P6SM SKC
     FM300400 00000KT 4SM BR SKC
     FM300800 00000KT 1/2SM FG BKN001=

USA.gov is the U.S. government's official web portal to all federal, state and local government web resources and services.